Terminal Aerodrome Forecast
Issued by NWS

Home | Current Version | Previous Version | Graphics & Text | Print | Product List | Glossary On
Versions: 1 2 3 4 5 6 7 8 9 10 11 12 13 14 15 16 17
000
FTUS43 KGRB 221725
TAFCWA
TAF
KCWA 221725Z 2218/2318 14005KT P6SM SCT250
     FM222300 14004KT P6SM FEW140 SCT250
     FM230500 14006KT P6SM BKN080
     FM231100 13007KT P6SM SCT035 OVC070 PROB30 2311/2314 -SN BKN035
     FM231400 14010KT P6SM OVC070=

USA.gov is the U.S. government's official web portal to all federal, state and local government web resources and services.